Diadema Argentina, Argentina
Current Conditions -  °F | °C
As of 12:00 PM on Tuesday 21 Oct 2014 (Local Time) from SAVC Reporting Station
Broken Clouds Broken Clouds  
Wind Chill: 70°   Ceiling: 20000
Heat Index: 70°   Visibility: 6mi
Dew Point: 39°   Wind: 16mph
Humidity: 33%   Direction: 320°NW
Pressure: 29.62"   Gusts: NA
Location:  45.77°S, 67.67°W
Report Text: SAVC 211500Z 32014KT 250V340 9999 FEW040SCT100 BKN200 21/04 Q1003
Loading
Personal Weather Stations






























Interactive Weather Map New forecast layout! Learn more

10-Day Weather Forecast

Advertisements
Track Severe Weather on mobile